Darstellungsparameter: Aktuell verwendete Einstellungen:
Skalierung der Graphiken ... ?
xyx+y,   Skalierungsfaktor:      Skalierung: Modus: x, Faktor: 1
Darstellungszeitraum ... ?
Vom - - bis: - -   Zeitraum: 15.01.2011 - 19.01.2011
Min/Max/Avg-Anzeige ... ?
Zeige MMA aktuell
Zeige MMA Monat
Zeige MMA alles
Zeige --A aktuell
Zeige --A Monat
Zeige --A alles
Keine MMA-Anzeige
MMA:
Average (ber die Originaldaten)
MMA-Basis: 15.01.2011 - 19.01.2011
Quicknavigation für Darstellung... ?
Tage:      1T, 2T, 3T, 5T -1T -2T -3T -5T +1T +2T +3T +5T
Wochen: 1W, 2W, 3W -1W -2W -3W +1W +2W +3W
Monate: 1M, 3M, 6M -1M -3M -6M +1M +3M +6M
Jahre:    1J, 3J, 5J, 10J -1J -3J -5J -10J +1J +3J +5J +10J
Nutze für die Darstellung ... ?
Originaldaten oder Mittelwerte auf ...
Stundenbasis Tagesbasis Wochenbasis
Monatsbasis Jahresbasis      Datenbasis: Original-Daten
Darstellen als:
Statistik (Auto) Statistik J:M      Darstellung:
Zur Graphik,    zurück zur Übersicht aller Sensoren.
 
Tabellarische Datenbersicht: ?
 
Sensor: Nr:Datum:Temp:Abs-Feuchte:Windchill:Wind:
Aussen-T/F 1 15-01-2011 00:04:03 8.3 C 6.74 g/m*3 8.3 C 0 km/h
2 15-01-2011 00:16:03 8 C 6.7 g/m*3 8 C 0 km/h
3 15-01-2011 00:28:03 8.5 C 6.74 g/m*3 8.5 C 0 km/h
4 15-01-2011 00:40:03 8.1 C 6.49 g/m*3 8.1 C 0 km/h
5 15-01-2011 00:52:03 8.2 C 6.53 g/m*3 8.2 C 0 km/h
6 15-01-2011 01:04:03 8.1 C 6.49 g/m*3 8.1 C 0 km/h
7 15-01-2011 01:16:03 8.3 C 6.49 g/m*3 8.3 C 0 km/h
8 15-01-2011 01:28:03 8.5 C 6.32 g/m*3 8.5 C 0 km/h
9 15-01-2011 01:40:03 8.2 C 6.36 g/m*3 8.2 C 0 km/h
10 15-01-2011 01:52:03 8 C 6.37 g/m*3 8 C 0 km/h
11 15-01-2011 02:04:04 8.4 C 6.45 g/m*3 8.4 C 0 km/h
12 15-01-2011 02:16:04 8.3 C 6.41 g/m*3 8.3 C 0 km/h
13 15-01-2011 02:28:04 8.1 C 6.32 g/m*3 8.1 C 0 km/h
14 15-01-2011 02:40:04 7.6 C 6.36 g/m*3 7.6 C 0 km/h
15 15-01-2011 02:52:04 7.8 C 6.61 g/m*3 7.8 C 0 km/h
16 15-01-2011 03:04:04 8 C 6.45 g/m*3 8 C 0 km/h
17 15-01-2011 03:16:04 8.1 C 6.41 g/m*3 8.1 C 0 km/h
18 15-01-2011 03:28:04 8.4 C 6.62 g/m*3 8.4 C 0 km/h
19 15-01-2011 03:40:04 8.1 C 6.41 g/m*3 8.1 C 0 km/h
20 15-01-2011 03:52:04 8 C 6.45 g/m*3 8 C 0 km/h
21 15-01-2011 04:04:04 7.8 C 6.45 g/m*3 7.8 C 0 km/h
22 15-01-2011 04:16:04 8 C 6.53 g/m*3 8 C 0 km/h
23 15-01-2011 04:28:04 8.2 C 6.36 g/m*3 8.2 C 0 km/h
24 15-01-2011 04:40:04 8.7 C 6.4 g/m*3 8.7 C 0 km/h
25 15-01-2011 04:52:04 8.4 C 6.28 g/m*3 8.4 C 0 km/h
Sensor: Nr:Datum:Temp:Abs-Feuchte:Windchill:Wind:
Aussen-T/F 26 15-01-2011 05:04:04 8.3 C 6.15 g/m*3 8.3 C 0 km/h
27 15-01-2011 05:16:04 8.1 C 6.07 g/m*3 8.1 C 0 km/h
28 15-01-2011 05:28:04 7.7 C 6.24 g/m*3 7.7 C 0 km/h
29 15-01-2011 05:40:04 8 C 6.12 g/m*3 8 C 0 km/h
30 15-01-2011 05:52:04 7.7 C 6.08 g/m*3 7.7 C 0 km/h
31 15-01-2011 06:04:05 7.5 C 6.24 g/m*3 7.5 C 0 km/h
32 15-01-2011 06:16:05 6.9 C 6.24 g/m*3 6.9 C 0 km/h
33 15-01-2011 06:28:05 7.3 C 6.24 g/m*3 7.3 C 0 km/h
34 15-01-2011 06:40:05 7.6 C 6.2 g/m*3 7.6 C 0 km/h
35 15-01-2011 06:52:05 7.9 C 6.16 g/m*3 7.9 C 0 km/h
36 15-01-2011 07:04:05 7.1 C 6.01 g/m*3 7.1 C 0 km/h
37 15-01-2011 07:16:05 7.3 C 6.24 g/m*3 7.3 C 0 km/h
38 15-01-2011 07:28:05 7 C 6.2 g/m*3 7 C 0 km/h
39 15-01-2011 07:40:05 7 C 6.12 g/m*3 7 C 0 km/h
40 15-01-2011 07:52:05 7 C 6.12 g/m*3 7 C 0 km/h
41 15-01-2011 08:04:02 7 C 6.12 g/m*3 7 C 0 km/h
42 15-01-2011 08:16:03 7.1 C 6.08 g/m*3 7.1 C 0 km/h
43 15-01-2011 08:28:03 8 C 6.28 g/m*3 8 C 0 km/h
44 15-01-2011 08:40:02 8 C 6.04 g/m*3 8 C 0 km/h
45 15-01-2011 08:52:03 8.3 C 6.15 g/m*3 8.3 C 0 km/h
46 15-01-2011 09:04:02 8.2 C 5.95 g/m*3 8.2 C 0 km/h
47 15-01-2011 09:16:02 7.9 C 5.91 g/m*3 7.9 C 0 km/h
48 15-01-2011 09:28:02 8.2 C 6.03 g/m*3 8.2 C 0 km/h
49 15-01-2011 09:40:02 8.5 C 5.98 g/m*3 8.5 C 0 km/h
50 15-01-2011 09:52:02 8.7 C 6.05 g/m*3 8.7 C 0 km/h
Sensor: Nr:Datum:Temp:Abs-Feuchte:Windchill:Wind:
Aussen-T/F 51 15-01-2011 10:04:01 9.1 C 5.94 g/m*3 9.1 C 0 km/h
52 15-01-2011 10:16:02 8.9 C 5.96 g/m*3 8.9 C 0 km/h
53 15-01-2011 10:28:02 9 C 5.91 g/m*3 9 C 0 km/h
54 15-01-2011 10:40:02 9.1 C 5.86 g/m*3 9.1 C 0 km/h
55 15-01-2011 10:52:02 9.2 C 5.89 g/m*3 9.2 C 0 km/h
56 15-01-2011 11:04:02 9.4 C 5.97 g/m*3 9.4 C 0 km/h
57 15-01-2011 11:16:02 9.5 C 6.01 g/m*3 9.5 C 0 km/h
58 15-01-2011 11:28:02 10.1 C 5.96 g/m*3 10.1 C 0 km/h
59 15-01-2011 11:40:02 10.1 C 5.77 g/m*3 10.1 C 0 km/h
60 15-01-2011 11:52:02 10.2 C 5.71 g/m*3 10.2 C 0 km/h
61 15-01-2011 12:04:02 10.2 C 5.8 g/m*3 10.2 C 0 km/h
62 15-01-2011 12:16:03 10.2 C 5.71 g/m*3 10.2 C 0 km/h
63 15-01-2011 12:28:03 10.3 C 5.75 g/m*3 10.3 C 0 km/h
64 15-01-2011 12:40:02 10.2 C 5.71 g/m*3 10.2 C 0 km/h
65 15-01-2011 12:52:01 10.1 C 5.67 g/m*3 10.1 C 0 km/h
66 15-01-2011 13:04:01 10.1 C 5.58 g/m*3 10.1 C 0 km/h
67 15-01-2011 13:16:02 10 C 5.64 g/m*3 10 C 0 km/h
68 15-01-2011 13:28:02 10 C 5.54 g/m*3 10 C 0 km/h
69 15-01-2011 13:40:01 10 C 5.54 g/m*3 10 C 0 km/h
70 15-01-2011 13:52:01 10.1 C 5.58 g/m*3 10.1 C 0 km/h
71 15-01-2011 14:04:01 10.2 C 5.61 g/m*3 10.2 C 0 km/h
72 15-01-2011 14:16:02 10 C 5.54 g/m*3 10 C 0 km/h
73 15-01-2011 14:28:02 10 C 5.54 g/m*3 10 C 0 km/h
74 15-01-2011 14:40:01 10 C 5.54 g/m*3 10 C 0 km/h
75 15-01-2011 14:52:01 10 C 5.45 g/m*3 10 C 0 km/h
Sensor: Nr:Datum:Temp:Abs-Feuchte:Windchill:Wind:
Aussen-T/F 76 15-01-2011 15:04:01 9.9 C 5.42 g/m*3 9.9 C 0 km/h
77 15-01-2011 15:16:02 9.8 C 5.57 g/m*3 9.8 C 0 km/h
78 15-01-2011 15:28:02 9.6 C 5.5 g/m*3 9.6 C 0 km/h
79 15-01-2011 15:40:01 9.7 C 5.53 g/m*3 9.7 C 0 km/h
80 15-01-2011 15:52:02 9.1 C 5.59 g/m*3 9.1 C 0 km/h
81 15-01-2011 16:04:02 8.8 C 5.83 g/m*3 8.8 C 0 km/h
82 15-01-2011 16:16:03 8.7 C 5.71 g/m*3 8.7 C 0 km/h
83 15-01-2011 16:28:03 8.9 C 5.69 g/m*3 8.9 C 0 km/h
84 15-01-2011 16:40:02 8.9 C 5.69 g/m*3 8.9 C 0 km/h
85 15-01-2011 16:52:02 9.2 C 5.63 g/m*3 9.2 C 0 km/h
86 15-01-2011 17:04:01 8.7 C 5.79 g/m*3 8.7 C 0 km/h
87 15-01-2011 17:16:01 9.1 C 5.59 g/m*3 9.1 C 0 km/h
88 15-01-2011 17:28:01 9.2 C 5.54 g/m*3 9.2 C 0 km/h
89 15-01-2011 17:40:02 9 C 5.64 g/m*3 9 C 0 km/h
90 15-01-2011 17:52:03 9.1 C 5.68 g/m*3 9.1 C 0 km/h
91 15-01-2011 18:04:03 9.2 C 5.71 g/m*3 9.2 C 0 km/h
92 15-01-2011 18:16:01 9.1 C 5.68 g/m*3 9.1 C 0 km/h
93 15-01-2011 18:28:01 9 C 5.82 g/m*3 9 C 0 km/h
94 15-01-2011 18:40:02 9 C 5.82 g/m*3 9 C 0 km/h
95 15-01-2011 18:52:02 8.6 C 5.84 g/m*3 8.6 C 0 km/h
96 15-01-2011 19:04:02 9.1 C 5.77 g/m*3 9.1 C 0 km/h
97 15-01-2011 19:16:02 9.3 C 5.66 g/m*3 9.3 C 0 km/h
98 15-01-2011 19:28:02 9.1 C 5.59 g/m*3 9.1 C 0 km/h
99 15-01-2011 19:40:02 9.3 C 5.75 g/m*3 9.3 C 0 km/h
100 15-01-2011 19:52:01 9.1 C 5.68 g/m*3 9.1 C 0 km/h
Sensor: Nr:Datum:Temp:Abs-Feuchte:Windchill:Wind:
Aussen-T/F 101 15-01-2011 20:04:01 9.4 C 5.7 g/m*3 9.4 C 0 km/h
102 15-01-2011 20:16:02 9.1 C 5.59 g/m*3 9.1 C 0 km/h
103 15-01-2011 20:28:02 8.6 C 5.67 g/m*3 8.6 C 0 km/h
104 15-01-2011 20:40:01 8.9 C 5.69 g/m*3 8.9 C 0 km/h
105 15-01-2011 20:52:01 8.6 C 5.76 g/m*3 8.6 C 0 km/h
106 15-01-2011 21:04:01 8.2 C 5.53 g/m*3 8.2 C 0 km/h
107 15-01-2011 21:16:02 8.1 C 5.57 g/m*3 8.1 C 0 km/h
108 15-01-2011 21:28:02 8 C 5.54 g/m*3 8 C 0 km/h
109 15-01-2011 21:40:01 7.8 C 5.71 g/m*3 7.8 C 0 km/h
110 15-01-2011 21:52:01 8.1 C 5.74 g/m*3 8.1 C 0 km/h
111 15-01-2011 22:04:01 8.3 C 5.82 g/m*3 8.3 C 0 km/h
112 15-01-2011 22:16:02 8.5 C 5.98 g/m*3 8.5 C 0 km/h
113 15-01-2011 22:28:02 8.9 C 5.96 g/m*3 8.9 C 0 km/h
114 15-01-2011 22:41:03 8.6 C 5.84 g/m*3 8.6 C 0 km/h
115 15-01-2011 22:53:03 8.7 C 5.88 g/m*3 8.7 C 0 km/h
116 15-01-2011 23:05:03 8.5 C 5.89 g/m*3 8.5 C 0 km/h
117 15-01-2011 23:17:03 8.2 C 5.86 g/m*3 8.2 C 0 km/h
118 15-01-2011 23:29:03 8.7 C 5.88 g/m*3 8.7 C 0 km/h
119 15-01-2011 23:41:03 8.8 C 5.92 g/m*3 8.8 C 0 km/h
120 15-01-2011 23:53:03 8.9 C 5.87 g/m*3 8.9 C 0 km/h
121 16-01-2011 00:05:03 8.7 C 5.97 g/m*3 8.7 C 0 km/h
122 16-01-2011 00:17:03 8.8 C 5.92 g/m*3 8.8 C 0 km/h
123 16-01-2011 00:29:03 9 C 5.82 g/m*3 9 C 0 km/h
124 16-01-2011 00:41:03 9 C 5.73 g/m*3 9 C 0 km/h
125 16-01-2011 00:53:04 9 C 5.73 g/m*3 9 C 0 km/h
Sensor: Nr:Datum:Temp:Abs-Feuchte:Windchill:Wind:
Aussen-T/F 126 16-01-2011 01:05:04 8.5 C 5.64 g/m*3 8.5 C 0 km/h
127 16-01-2011 01:17:04 8.6 C 5.76 g/m*3 8.6 C 0 km/h
128 16-01-2011 01:29:04 8 C 5.7 g/m*3 8 C 0 km/h
129 16-01-2011 01:41:04 8 C 5.7 g/m*3 8 C 0 km/h
130 16-01-2011 01:53:04 8.1 C 5.66 g/m*3 8.1 C 0 km/h
131 16-01-2011 02:05:04 8.1 C 5.66 g/m*3 8.1 C 0 km/h
132 16-01-2011 02:17:04 7.8 C 5.71 g/m*3 7.8 C 0 km/h
133 16-01-2011 02:29:04 7.8 C 5.79 g/m*3 7.8 C 0 km/h
134 16-01-2011 02:41:04 7.8 C 5.88 g/m*3 7.8 C 0 km/h
135 16-01-2011 02:53:04 8.3 C 5.82 g/m*3 8.3 C 0 km/h
136 16-01-2011 03:05:04 8.4 C 5.77 g/m*3 8.4 C 0 km/h
137 16-01-2011 03:17:04 8.3 C 5.65 g/m*3 8.3 C 0 km/h
138 16-01-2011 03:29:04 8.2 C 5.69 g/m*3 8.2 C 0 km/h
139 16-01-2011 03:41:04 7.8 C 5.71 g/m*3 7.8 C 0 km/h
140 16-01-2011 03:53:04 8 C 5.7 g/m*3 8 C 0 km/h
141 16-01-2011 04:05:04 7.9 C 5.75 g/m*3 7.9 C 0 km/h
142 16-01-2011 04:17:04 8.2 C 5.78 g/m*3 8.2 C 0 km/h
143 16-01-2011 04:29:04 8.5 C 5.72 g/m*3 8.5 C 0 km/h
144 16-01-2011 04:41:04 8.4 C 5.77 g/m*3 8.4 C 0 km/h
145 16-01-2011 04:53:05 8.1 C 5.74 g/m*3 8.1 C 0 km/h
146 16-01-2011 05:05:05 7.9 C 5.83 g/m*3 7.9 C 0 km/h
147 16-01-2011 05:17:05 7.3 C 5.85 g/m*3 7.3 C 0 km/h
148 16-01-2011 05:29:05 6.8 C 5.97 g/m*3 6.8 C 0 km/h
149 16-01-2011 05:41:05 7 C 6.12 g/m*3 7 C 0 km/h
150 16-01-2011 05:53:05 6.8 C 6.12 g/m*3 6.8 C 0 km/h
Sensor: Nr:Datum:Temp:Abs-Feuchte:Windchill:Wind:
Aussen-T/F 151 16-01-2011 06:05:05 7 C 6.2 g/m*3 7 C 0 km/h
152 16-01-2011 06:17:05 7.1 C 6.16 g/m*3 7.1 C 0 km/h
153 16-01-2011 06:29:05 7.5 C 6.16 g/m*3 7.5 C 0 km/h
154 16-01-2011 06:41:05 7 C 5.89 g/m*3 7 C 0 km/h
155 16-01-2011 06:53:05 6.7 C 6 g/m*3 6.7 C 0 km/h
156 16-01-2011 07:05:05 7.5 C 6.16 g/m*3 7.5 C 0 km/h
157 16-01-2011 07:17:05 7.8 C 6.12 g/m*3 7.8 C 0 km/h
158 16-01-2011 07:29:05 7.9 C 6.08 g/m*3 7.9 C 0 km/h
159 16-01-2011 07:41:05 7.8 C 6.04 g/m*3 7.8 C 0 km/h
160 16-01-2011 07:53:05 8.4 C 5.94 g/m*3 8.4 C 0 km/h
161 16-01-2011 08:05:05 8.2 C 5.86 g/m*3 8.2 C 0 km/h
162 16-01-2011 08:17:05 8.3 C 5.9 g/m*3 8.3 C 0 km/h
163 16-01-2011 08:29:05 8.3 C 5.82 g/m*3 8.3 C 0 km/h
164 16-01-2011 08:41:05 8.1 C 5.82 g/m*3 8.1 C 0 km/h
165 16-01-2011 08:53:05 8.2 C 5.95 g/m*3 8.2 C 0 km/h
166 16-01-2011 09:05:02 8.3 C 5.98 g/m*3 8.3 C 0 km/h
167 16-01-2011 09:17:02 8 C 5.87 g/m*3 8 C 0 km/h
168 16-01-2011 09:29:02 8 C 5.87 g/m*3 8 C 0 km/h
169 16-01-2011 09:41:02 8 C 5.87 g/m*3 8 C 0 km/h
170 16-01-2011 09:53:01 7.9 C 5.91 g/m*3 7.9 C 0 km/h
171 16-01-2011 10:05:02 7.9 C 5.91 g/m*3 7.9 C 0 km/h
172 16-01-2011 10:17:01 7.9 C 5.91 g/m*3 7.9 C 0 km/h
173 16-01-2011 10:29:01 7.9 C 5.91 g/m*3 7.9 C 0 km/h
174 16-01-2011 10:41:01 8 C 5.95 g/m*3 8 C 0 km/h
175 16-01-2011 10:53:01 8.2 C 5.86 g/m*3 8.2 C 0 km/h
Sensor: Nr:Datum:Temp:Abs-Feuchte:Windchill:Wind:
Aussen-T/F 176 16-01-2011 11:05:02 8.1 C 5.91 g/m*3 8.1 C 0 km/h
177 16-01-2011 11:17:01 8.1 C 5.91 g/m*3 8.1 C 0 km/h
178 16-01-2011 11:29:01 8.3 C 5.98 g/m*3 8.3 C 0 km/h
179 16-01-2011 11:41:02 8.6 C 6.1 g/m*3 8.6 C 0 km/h
180 16-01-2011 11:53:01 8.7 C 6.05 g/m*3 8.7 C 0 km/h
181 16-01-2011 12:05:02 8.6 C 6.1 g/m*3 8.6 C 0 km/h
182 16-01-2011 12:17:01 8.6 C 6.19 g/m*3 8.6 C 0 km/h
183 16-01-2011 12:29:01 8.6 C 6.19 g/m*3 8.6 C 0 km/h
184 16-01-2011 12:41:02 8.7 C 6.14 g/m*3 8.7 C 0 km/h
185 16-01-2011 12:53:01 8.7 C 6.14 g/m*3 8.7 C 0 km/h
186 16-01-2011 13:05:02 8.9 C 6.22 g/m*3 8.9 C 0 km/h
187 16-01-2011 13:17:02 8.9 C 6.22 g/m*3 8.9 C 0 km/h
188 16-01-2011 13:29:02 8.8 C 6.18 g/m*3 8.8 C 0 km/h
189 16-01-2011 13:41:01 8.7 C 6.14 g/m*3 8.7 C 0 km/h
190 16-01-2011 13:53:02 8.8 C 6.18 g/m*3 8.8 C 0 km/h
191 16-01-2011 14:05:01 8.6 C 6.1 g/m*3 8.6 C 0 km/h
192 16-01-2011 14:17:02 7.8 C 6.04 g/m*3 7.8 C 0 km/h
193 16-01-2011 14:29:02 7.5 C 6.24 g/m*3 7.5 C 0 km/h
194 16-01-2011 14:41:01 8.7 C 6.57 g/m*3 8.7 C 0 km/h
195 16-01-2011 14:53:02 9.7 C 6.36 g/m*3 9.7 C 0 km/h
196 16-01-2011 15:05:01 9.9 C 6.26 g/m*3 9.9 C 0 km/h
197 16-01-2011 15:17:02 10 C 6.11 g/m*3 10 C 0 km/h
198 16-01-2011 15:29:02 10 C 6.11 g/m*3 10 C 0 km/h
199 16-01-2011 15:41:01 9.9 C 6.26 g/m*3 9.9 C 0 km/h
200 16-01-2011 15:53:02 9.8 C 6.4 g/m*3 9.8 C 0 km/h
Sensor: Nr:Datum:Temp:Abs-Feuchte:Windchill:Wind:
Aussen-T/F 201 16-01-2011 16:05:02 9.3 C 6.38 g/m*3 9.3 C 0 km/h
202 16-01-2011 16:17:02 8.7 C 6.4 g/m*3 8.7 C 0 km/h
203 16-01-2011 16:29:02 8 C 6.28 g/m*3 8 C 0 km/h
204 16-01-2011 16:41:02 7.4 C 6.36 g/m*3 7.4 C 0 km/h
205 16-01-2011 16:53:02 6.8 C 6.27 g/m*3 6.8 C 0 km/h
206 16-01-2011 17:05:01 6.3 C 6.14 g/m*3 6.3 C 0 km/h
207 16-01-2011 17:17:02 6.2 C 6.18 g/m*3 6.2 C 0 km/h
208 16-01-2011 17:29:02 6 C 6.17 g/m*3 6 C 0 km/h
209 16-01-2011 17:41:02 5.6 C 6.08 g/m*3 5.6 C 0 km/h
210 16-01-2011 17:53:02 5.5 C 6.11 g/m*3 5.5 C 0 km/h
211 16-01-2011 18:05:03 5.1 C 5.95 g/m*3 5.1 C 0 km/h
212 16-01-2011 18:17:02 5 C 5.91 g/m*3 5 C 0 km/h
213 16-01-2011 18:29:02 4.8 C 5.9 g/m*3 4.8 C 0 km/h
214 16-01-2011 18:41:02 4.7 C 5.93 g/m*3 4.7 C 0 km/h
215 16-01-2011 18:53:02 4.6 C 5.89 g/m*3 4.6 C 0 km/h
216 16-01-2011 19:05:01 4.5 C 5.85 g/m*3 4.5 C 0 km/h
217 16-01-2011 19:17:02 4.4 C 5.81 g/m*3 4.4 C 0 km/h
218 16-01-2011 19:29:03 4.4 C 5.81 g/m*3 4.4 C 0 km/h
219 16-01-2011 19:41:01 3.9 C 5.68 g/m*3 3.9 C 0 km/h
220 16-01-2011 19:53:02 3.9 C 5.68 g/m*3 3.9 C 0 km/h
221 16-01-2011 20:05:02 3.4 C 5.5 g/m*3 3.4 C 0 km/h
222 16-01-2011 20:17:02 3.7 C 5.61 g/m*3 3.7 C 0 km/h
223 16-01-2011 20:29:02 3.5 C 5.53 g/m*3 3.5 C 0 km/h
224 16-01-2011 20:41:03 2.9 C 5.37 g/m*3 2.9 C 0 km/h
225 16-01-2011 20:53:02 2.8 C 5.34 g/m*3 2.8 C 0 km/h
Sensor: Nr:Datum:Temp:Abs-Feuchte:Windchill:Wind:
Aussen-T/F 226 16-01-2011 21:05:01 2.7 C 5.3 g/m*3 2.7 C 0 km/h
227 16-01-2011 21:17:02 2.2 C 5.13 g/m*3 2.2 C 0 km/h
228 16-01-2011 21:29:02 2.7 C 5.3 g/m*3 2.7 C 0 km/h
229 16-01-2011 21:41:02 2.2 C 5.13 g/m*3 2.2 C 0 km/h
230 16-01-2011 21:53:02 2.2 C 5.13 g/m*3 2.2 C 0 km/h
231 16-01-2011 22:06:04 1.8 C 5.04 g/m*3 1.8 C 0 km/h
232 16-01-2011 22:18:04 2.8 C 5.4 g/m*3 2.8 C 0 km/h
233 16-01-2011 22:30:04 1.9 C 5.08 g/m*3 1.9 C 0 km/h
234 16-01-2011 22:42:04 2.1 C 5.09 g/m*3 2.1 C 0 km/h
235 16-01-2011 22:54:04 2.2 C 5.18 g/m*3 2.2 C 0 km/h
236 16-01-2011 23:06:04 2.1 C 5.15 g/m*3 2.1 C 0 km/h
237 16-01-2011 23:18:04 1.5 C 4.94 g/m*3 1.5 C 0 km/h
238 16-01-2011 23:30:04 1.5 C 4.94 g/m*3 1.5 C 0 km/h
239 16-01-2011 23:42:04 1.1 C 4.81 g/m*3 1.1 C 0 km/h
240 16-01-2011 23:54:04 0.6 C 4.65 g/m*3 0.6 C 0 km/h
241 17-01-2011 00:06:04 1.2 C 4.84 g/m*3 1.2 C 0 km/h
242 17-01-2011 00:18:04 1.6 C 5.03 g/m*3 1.6 C 0 km/h
243 17-01-2011 00:30:04 1.4 C 4.91 g/m*3 1.4 C 0 km/h
244 17-01-2011 00:42:04 1.4 C 4.91 g/m*3 1.4 C 0 km/h
245 17-01-2011 00:54:04 1.4 C 4.96 g/m*3 1.4 C 0 km/h
246 17-01-2011 01:06:04 0.9 C 4.79 g/m*3 0.9 C 0 km/h
247 17-01-2011 01:18:04 1.2 C 4.89 g/m*3 1.2 C 0 km/h
248 17-01-2011 01:30:04 1.5 C 4.99 g/m*3 1.5 C 0 km/h
249 17-01-2011 01:42:04 1.3 C 4.93 g/m*3 1.3 C 0 km/h
250 17-01-2011 01:54:04 1 C 4.78 g/m*3 1 C 0 km/h
Sensor: Nr:Datum:Temp:Abs-Feuchte:Windchill:Wind:
Aussen-T/F 251 17-01-2011 02:06:04 0.7 C 4.73 g/m*3 0.7 C 0 km/h
252 17-01-2011 02:18:05 1.5 C 4.99 g/m*3 1.5 C 0 km/h
253 17-01-2011 02:30:05 1.3 C 4.93 g/m*3 1.3 C 0 km/h
254 17-01-2011 02:42:05 1 C 4.83 g/m*3 1 C 0 km/h
255 17-01-2011 02:54:05 1.1 C 4.86 g/m*3 1.1 C 0 km/h
256 17-01-2011 03:06:05 1.4 C 4.96 g/m*3 1.4 C 0 km/h
257 17-01-2011 03:18:05 1.5 C 4.99 g/m*3 1.5 C 0 km/h
258 17-01-2011 03:30:05 0.9 C 4.85 g/m*3 0.9 C 0 km/h
259 17-01-2011 03:42:05 0.9 C 4.85 g/m*3 0.9 C 0 km/h
260 17-01-2011 03:54:05 0.5 C 4.71 g/m*3 0.5 C 0 km/h
261 17-01-2011 04:06:05 0.2 C 4.57 g/m*3 0.2 C 0 km/h
262 17-01-2011 04:18:05 -0.1 C 4.47 g/m*3 -0.1 C 0 km/h
263 17-01-2011 04:30:05 -0.3 C 4.41 g/m*3 -0.3 C 0 km/h
264 17-01-2011 04:42:05 0.1 C 4.54 g/m*3 0.1 C 0 km/h
265 17-01-2011 04:54:05 -0.1 C 4.47 g/m*3 -0.1 C 0 km/h
266 17-01-2011 05:06:05 0.6 C 4.75 g/m*3 0.6 C 0 km/h
267 17-01-2011 05:18:05 0.5 C 4.71 g/m*3 0.5 C 0 km/h
268 17-01-2011 05:30:05 -0.2 C 4.44 g/m*3 -0.2 C 0 km/h
269 17-01-2011 05:42:05 -0.5 C 4.35 g/m*3 -0.5 C 0 km/h
270 17-01-2011 05:54:05 0 C 4.51 g/m*3 0 C 0 km/h
271 17-01-2011 06:06:05 -0.3 C 4.41 g/m*3 -0.3 C 0 km/h
272 17-01-2011 06:18:06 -0.3 C 4.41 g/m*3 -0.3 C 0 km/h
273 17-01-2011 06:30:06 -0.6 C 4.32 g/m*3 -0.6 C 0 km/h
274 17-01-2011 06:42:06 -1 C 4.2 g/m*3 -1 C 0 km/h
275 17-01-2011 06:54:03 -0.9 C 4.23 g/m*3 -0.9 C 0 km/h
Sensor: Nr:Datum:Temp:Abs-Feuchte:Windchill:Wind:
Aussen-T/F 276 17-01-2011 07:06:02 -0.7 C 4.29 g/m*3 -0.7 C 0 km/h
277 17-01-2011 07:18:02 0.2 C 4.62 g/m*3 0.2 C 0 km/h
278 17-01-2011 07:30:02 0 C 4.55 g/m*3 0 C 0 km/h
279 17-01-2011 07:42:02 -0.5 C 4.35 g/m*3 -0.5 C 0 km/h
280 17-01-2011 07:54:02 -1 C 4.2 g/m*3 -1 C 0 km/h
281 17-01-2011 08:06:02 -1 C 4.2 g/m*3 -1 C 0 km/h
282 17-01-2011 08:18:02 -1 C 4.2 g/m*3 -1 C 0 km/h
283 17-01-2011 08:30:02 -1.1 C 4.17 g/m*3 -1.1 C 0 km/h
284 17-01-2011 08:42:03 -0.2 C 4.49 g/m*3 -0.2 C 0 km/h
285 17-01-2011 08:54:01 0 C 4.55 g/m*3 0 C 0 km/h
286 17-01-2011 09:06:02 0.4 C 4.68 g/m*3 0.4 C 0 km/h
287 17-01-2011 09:18:01 0.7 C 4.78 g/m*3 0.7 C 0 km/h
288 17-01-2011 09:30:01 0.8 C 4.81 g/m*3 0.8 C 0 km/h
289 17-01-2011 09:42:02 0.9 C 4.85 g/m*3 0.9 C 0 km/h
290 17-01-2011 09:54:01 0.8 C 4.81 g/m*3 0.8 C 0 km/h
291 17-01-2011 10:06:02 0.7 C 4.78 g/m*3 0.7 C 0 km/h
292 17-01-2011 10:18:02 0.7 C 4.78 g/m*3 0.7 C 0 km/h
293 17-01-2011 10:30:02 0.4 C 4.68 g/m*3 0.4 C 0 km/h
294 17-01-2011 10:42:01 0.6 C 4.75 g/m*3 0.6 C 0 km/h
295 17-01-2011 10:54:02 1 C 4.88 g/m*3 1 C 0 km/h
296 17-01-2011 11:06:01 1 C 4.88 g/m*3 1 C 0 km/h
297 17-01-2011 11:18:02 1 C 4.88 g/m*3 1 C 0 km/h
298 17-01-2011 11:30:02 1.7 C 5.12 g/m*3 1.7 C 0 km/h
299 17-01-2011 11:42:01 2.9 C 5.55 g/m*3 2.9 C 0 km/h
300 17-01-2011 11:54:02 4.1 C 5.95 g/m*3 4.1 C 0 km/h
Sensor: Nr:Datum:Temp:Abs-Feuchte:Windchill:Wind:
Aussen-T/F 301 17-01-2011 12:06:02 5 C 6.32 g/m*3 5 C 0 km/h
302 17-01-2011 12:18:02 4.9 C 6.35 g/m*3 4.9 C 0 km/h
303 17-01-2011 12:30:02 5.4 C 6.49 g/m*3 5.4 C 0 km/h
304 17-01-2011 12:42:03 5.8 C 6.66 g/m*3 5.8 C 0 km/h
305 17-01-2011 12:54:02 6 C 6.68 g/m*3 6 C 0 km/h
306 17-01-2011 13:06:02 6.3 C 6.81 g/m*3 6.3 C 0 km/h
307 17-01-2011 13:18:01 6.3 C 6.74 g/m*3 6.3 C 0 km/h
308 17-01-2011 13:30:01 6 C 6.46 g/m*3 6 C 0 km/h
309 17-01-2011 13:42:02 5.8 C 6.38 g/m*3 5.8 C 0 km/h
310 17-01-2011 13:54:02 5.9 C 6.35 g/m*3 5.9 C 0 km/h
311 17-01-2011 14:06:02 6 C 6.17 g/m*3 6 C 0 km/h
312 17-01-2011 14:18:02 6.3 C 6.22 g/m*3 6.3 C 0 km/h
313 17-01-2011 14:30:02 6.5 C 6.15 g/m*3 6.5 C 0 km/h
314 17-01-2011 14:42:02 6.6 C 5.96 g/m*3 6.6 C 0 km/h
315 17-01-2011 14:54:02 6.6 C 5.89 g/m*3 6.6 C 0 km/h
316 17-01-2011 15:06:02 6.7 C 5.85 g/m*3 6.7 C 0 km/h
317 17-01-2011 15:18:02 6.5 C 5.92 g/m*3 6.5 C 0 km/h
318 17-01-2011 15:30:02 6.2 C 5.88 g/m*3 6.2 C 0 km/h
319 17-01-2011 15:42:02 5.8 C 5.87 g/m*3 5.8 C 0 km/h
320 17-01-2011 15:54:02 5.7 C 5.98 g/m*3 5.7 C 0 km/h
321 17-01-2011 16:06:03 6.2 C 6.1 g/m*3 6.2 C 0 km/h
322 17-01-2011 16:18:02 5.6 C 5.94 g/m*3 5.6 C 0 km/h
323 17-01-2011 16:30:02 6.1 C 6.06 g/m*3 6.1 C 0 km/h
324 17-01-2011 16:42:02 6.3 C 5.85 g/m*3 6.3 C 0 km/h
325 17-01-2011 16:54:01 6.7 C 5.85 g/m*3 6.7 C 0 km/h
Sensor: Nr:Datum:Temp:Abs-Feuchte:Windchill:Wind:
Aussen-T/F 326 17-01-2011 17:06:02 6.4 C 5.74 g/m*3 6.4 C 0 km/h
327 17-01-2011 17:18:01 6.1 C 5.77 g/m*3 6.1 C 0 km/h
328 17-01-2011 17:30:01 6.3 C 5.85 g/m*3 6.3 C 0 km/h
329 17-01-2011 17:42:01 6.2 C 5.88 g/m*3 6.2 C 0 km/h
330 17-01-2011 17:54:01 6 C 5.88 g/m*3 6 C 0 km/h
331 17-01-2011 18:06:02 5.9 C 5.98 g/m*3 5.9 C 0 km/h
332 17-01-2011 18:18:02 6 C 6.02 g/m*3 6 C 0 km/h
333 17-01-2011 18:30:02 6 C 6.02 g/m*3 6 C 0 km/h
334 17-01-2011 18:42:01 6 C 6.1 g/m*3 6 C 0 km/h
335 17-01-2011 18:54:01 6 C 6.1 g/m*3 6 C 0 km/h
336 17-01-2011 19:06:01 6 C 6.1 g/m*3 6 C 0 km/h
337 17-01-2011 19:18:02 6.2 C 6.1 g/m*3 6.2 C 0 km/h
338 17-01-2011 19:30:02 6.3 C 6.07 g/m*3 6.3 C 0 km/h
339 17-01-2011 19:42:02 6.3 C 6.07 g/m*3 6.3 C 0 km/h
340 17-01-2011 19:54:03 6.3 C 6.14 g/m*3 6.3 C 0 km/h
341 17-01-2011 20:06:03 6.5 C 6.15 g/m*3 6.5 C 0 km/h
342 17-01-2011 20:18:02 6.7 C 6.15 g/m*3 6.7 C 0 km/h
343 17-01-2011 20:30:02 6.8 C 6.19 g/m*3 6.8 C 0 km/h
344 17-01-2011 20:42:02 7.3 C 6.24 g/m*3 7.3 C 0 km/h
345 17-01-2011 20:54:02 7.4 C 6.2 g/m*3 7.4 C 0 km/h
346 17-01-2011 21:06:02 7.5 C 6.24 g/m*3 7.5 C 0 km/h
347 17-01-2011 21:18:03 7.9 C 6.32 g/m*3 7.9 C 0 km/h
348 17-01-2011 21:30:03 8.2 C 6.2 g/m*3 8.2 C 0 km/h
349 17-01-2011 21:42:02 8.2 C 6.2 g/m*3 8.2 C 0 km/h
350 17-01-2011 21:54:02 8.4 C 6.19 g/m*3 8.4 C 0 km/h
Sensor: Nr:Datum:Temp:Abs-Feuchte:Windchill:Wind:
Aussen-T/F 351 17-01-2011 22:06:02 8.2 C 6.11 g/m*3 8.2 C 0 km/h
352 17-01-2011 22:19:04 8.4 C 6.11 g/m*3 8.4 C 0 km/h
353 17-01-2011 22:31:04 8.2 C 6.11 g/m*3 8.2 C 0 km/h
354 17-01-2011 22:43:04 8.2 C 6.11 g/m*3 8.2 C 0 km/h
355 17-01-2011 22:55:04 8.4 C 6.19 g/m*3 8.4 C 0 km/h
356 17-01-2011 23:07:04 8.4 C 6.19 g/m*3 8.4 C 0 km/h
357 17-01-2011 23:19:04 8.6 C 6.27 g/m*3 8.6 C 0 km/h
358 17-01-2011 23:31:04 8.6 C 6.19 g/m*3 8.6 C 0 km/h
359 17-01-2011 23:43:04 8.5 C 6.23 g/m*3 8.5 C 0 km/h
360 17-01-2011 23:55:04 8.7 C 6.31 g/m*3 8.7 C 0 km/h
361 18-01-2011 00:07:04 8.5 C 6.23 g/m*3 8.5 C 0 km/h
362 18-01-2011 00:19:04 8.3 C 6.15 g/m*3 8.3 C 0 km/h
363 18-01-2011 00:31:04 7.5 C 6 g/m*3 7.5 C 0 km/h
364 18-01-2011 00:43:04 6.9 C 6.08 g/m*3 6.9 C 0 km/h
365 18-01-2011 00:55:04 7 C 6.2 g/m*3 7 C 0 km/h
366 18-01-2011 01:07:04 7.4 C 6.36 g/m*3 7.4 C 0 km/h
367 18-01-2011 01:19:04 7.3 C 6.24 g/m*3 7.3 C 0 km/h
368 18-01-2011 01:31:05 7.3 C 6.24 g/m*3 7.3 C 0 km/h
369 18-01-2011 01:43:05 6.6 C 6.04 g/m*3 6.6 C 0 km/h
370 18-01-2011 01:55:05 5.6 C 5.8 g/m*3 5.6 C 0 km/h
371 18-01-2011 02:07:05 5.3 C 5.82 g/m*3 5.3 C 0 km/h
372 18-01-2011 02:19:05 5.1 C 5.81 g/m*3 5.1 C 0 km/h
373 18-01-2011 02:31:05 5 C 5.84 g/m*3 5 C 0 km/h
374 18-01-2011 02:43:05 5.3 C 6.03 g/m*3 5.3 C 0 km/h
375 18-01-2011 02:55:05 5.5 C 6.18 g/m*3 5.5 C 0 km/h
Sensor: Nr:Datum:Temp:Abs-Feuchte:Windchill:Wind:
Aussen-T/F 376 18-01-2011 03:07:05 7 C 6.35 g/m*3 7 C 0 km/h
377 18-01-2011 03:19:05 6.6 C 6.04 g/m*3 6.6 C 0 km/h
378 18-01-2011 03:31:05 7.1 C 6.08 g/m*3 7.1 C 0 km/h
379 18-01-2011 03:43:05 7.6 C 6.12 g/m*3 7.6 C 0 km/h
380 18-01-2011 03:55:05 7.2 C 5.89 g/m*3 7.2 C 0 km/h
381 18-01-2011 04:07:05 6.7 C 5.93 g/m*3 6.7 C 0 km/h
382 18-01-2011 04:19:05 6.7 C 5.93 g/m*3 6.7 C 0 km/h
383 18-01-2011 04:31:05 7.4 C 6.04 g/m*3 7.4 C 0 km/h
384 18-01-2011 04:43:05 7.2 C 5.89 g/m*3 7.2 C 0 km/h
385 18-01-2011 04:55:05 7.3 C 6 g/m*3 7.3 C 0 km/h
386 18-01-2011 05:07:05 7.4 C 6.04 g/m*3 7.4 C 0 km/h
387 18-01-2011 05:19:05 7.6 C 6.12 g/m*3 7.6 C 0 km/h
388 18-01-2011 05:31:06 7.5 C 5.84 g/m*3 7.5 C 0 km/h
389 18-01-2011 05:43:06 8 C 5.79 g/m*3 8 C 0 km/h
390 18-01-2011 05:55:06 7.9 C 5.91 g/m*3 7.9 C 0 km/h
391 18-01-2011 06:07:06 7.5 C 5.84 g/m*3 7.5 C 0 km/h
392 18-01-2011 06:19:06 7.6 C 5.96 g/m*3 7.6 C 0 km/h
393 18-01-2011 06:31:06 6.8 C 5.89 g/m*3 6.8 C 0 km/h
394 18-01-2011 06:43:06 6.8 C 6.04 g/m*3 6.8 C 0 km/h
395 18-01-2011 06:55:06 7.6 C 6.12 g/m*3 7.6 C 0 km/h
396 18-01-2011 07:07:06 7 C 5.81 g/m*3 7 C 0 km/h
397 18-01-2011 07:19:06 6.6 C 5.96 g/m*3 6.6 C 0 km/h
398 18-01-2011 07:31:06 7.1 C 6.08 g/m*3 7.1 C 0 km/h
399 18-01-2011 07:43:06 7.3 C 6.08 g/m*3 7.3 C 0 km/h
400 18-01-2011 07:55:02 7.7 C 6.24 g/m*3 7.7 C 0 km/h
Sensor: Nr:Datum:Temp:Abs-Feuchte:Windchill:Wind:
Aussen-T/F 401 18-01-2011 08:07:02 7.1 C 5.93 g/m*3 7.1 C 0 km/h
402 18-01-2011 08:19:01 7.2 C 5.97 g/m*3 7.2 C 0 km/h
403 18-01-2011 08:31:02 7 C 5.97 g/m*3 7 C 0 km/h
404 18-01-2011 08:43:02 7.2 C 5.97 g/m*3 7.2 C 0 km/h
405 18-01-2011 08:55:01 8 C 6.04 g/m*3 8 C 0 km/h
406 18-01-2011 09:07:02 8.3 C 6.07 g/m*3 8.3 C 0 km/h
407 18-01-2011 09:19:01 8.4 C 6.02 g/m*3 8.4 C 0 km/h
408 18-01-2011 09:31:02 8.4 C 6.02 g/m*3 8.4 C 0 km/h
409 18-01-2011 09:43:02 8.6 C 6.02 g/m*3 8.6 C 0 km/h
410 18-01-2011 09:55:02 8.5 C 6.06 g/m*3 8.5 C 0 km/h
411 18-01-2011 10:07:02 8.6 C 6.1 g/m*3 8.6 C 0 km/h
412 18-01-2011 10:19:01 8.8 C 6.09 g/m*3 8.8 C 0 km/h
413 18-01-2011 10:31:02 9 C 5.99 g/m*3 9 C 0 km/h
414 18-01-2011 10:43:02 8.8 C 6.18 g/m*3 8.8 C 0 km/h
415 18-01-2011 10:55:02 9 C 6.08 g/m*3 9 C 0 km/h
416 18-01-2011 11:07:02 9.1 C 6.03 g/m*3 9.1 C 0 km/h
417 18-01-2011 11:19:02 9.2 C 6.07 g/m*3 9.2 C 0 km/h
418 18-01-2011 11:31:02 9.1 C 6.03 g/m*3 9.1 C 0 km/h
419 18-01-2011 11:43:02 8.4 C 6.02 g/m*3 8.4 C 0 km/h
420 18-01-2011 11:55:02 7.9 C 6.08 g/m*3 7.9 C 0 km/h
421 18-01-2011 12:07:02 8.8 C 6.27 g/m*3 8.8 C 0 km/h
422 18-01-2011 12:19:02 9.8 C 6.22 g/m*3 9.8 C 0 km/h
423 18-01-2011 12:31:01 10 C 5.92 g/m*3 10 C 0 km/h
424 18-01-2011 12:43:01 9.9 C 5.98 g/m*3 9.9 C 0 km/h
425 18-01-2011 12:55:02 10 C 5.92 g/m*3 10 C 0 km/h
Sensor: Nr:Datum:Temp:Abs-Feuchte:Windchill:Wind:
Aussen-T/F 426 18-01-2011 13:07:01 9.8 C 6.03 g/m*3 9.8 C 0 km/h
427 18-01-2011 13:19:01 9.9 C 5.98 g/m*3 9.9 C 0 km/h
428 18-01-2011 13:31:02 9.8 C 5.94 g/m*3 9.8 C 0 km/h
429 18-01-2011 13:43:02 9.6 C 6.14 g/m*3 9.6 C 0 km/h
430 18-01-2011 13:55:02 9.4 C 6.15 g/m*3 9.4 C 0 km/h
431 18-01-2011 14:07:02 9.8 C 6.12 g/m*3 9.8 C 0 km/h
432 18-01-2011 14:19:02 9.6 C 5.86 g/m*3 9.6 C 0 km/h
433 18-01-2011 14:31:02 9.6 C 5.86 g/m*3 9.6 C 0 km/h
434 18-01-2011 14:43:02 9.7 C 5.99 g/m*3 9.7 C 0 km/h
435 18-01-2011 14:55:02 9.9 C 5.88 g/m*3 9.9 C 0 km/h
436 18-01-2011 15:07:03 10.2 C 5.71 g/m*3 10.2 C 0 km/h
437 18-01-2011 15:19:02 9.5 C 5.73 g/m*3 9.5 C 0 km/h
438 18-01-2011 15:31:02 9.1 C 5.68 g/m*3 9.1 C 0 km/h
439 18-01-2011 15:43:02 9.2 C 5.63 g/m*3 9.2 C 0 km/h
440 18-01-2011 15:55:01 9.1 C 5.59 g/m*3 9.1 C 0 km/h
441 18-01-2011 16:07:02 9.1 C 5.5 g/m*3 9.1 C 0 km/h
442 18-01-2011 16:19:01 8.8 C 5.48 g/m*3 8.8 C 0 km/h
443 18-01-2011 16:31:01 9.1 C 5.59 g/m*3 9.1 C 0 km/h
444 18-01-2011 16:43:01 7.8 C 5.96 g/m*3 7.8 C 0 km/h
445 18-01-2011 16:55:01 7.1 C 6.24 g/m*3 7.1 C 0 km/h
446 18-01-2011 17:07:01 6.6 C 6.27 g/m*3 6.6 C 0 km/h
447 18-01-2011 17:19:02 6.5 C 6.37 g/m*3 6.5 C 0 km/h
448 18-01-2011 17:31:01 6.5 C 6.45 g/m*3 6.5 C 0 km/h
449 18-01-2011 17:43:01 6.6 C 6.49 g/m*3 6.6 C 0 km/h
450 18-01-2011 17:55:03 6.5 C 6.52 g/m*3 6.5 C 0 km/h
Sensor: Nr:Datum:Temp:Abs-Feuchte:Windchill:Wind:
Aussen-T/F 451 18-01-2011 18:07:02 6.4 C 6.48 g/m*3 6.4 C 0 km/h
452 18-01-2011 18:19:02 6.3 C 6.37 g/m*3 6.3 C 0 km/h
453 18-01-2011 18:31:02 6.1 C 6.21 g/m*3 6.1 C 0 km/h
454 18-01-2011 18:43:02 6.1 C 6.21 g/m*3 6.1 C 0 km/h
455 18-01-2011 18:55:02 5.9 C 6.27 g/m*3 5.9 C 0 km/h
456 18-01-2011 19:07:02 5.9 C 6.27 g/m*3 5.9 C 0 km/h
457 18-01-2011 19:19:02 5.9 C 6.27 g/m*3 5.9 C 0 km/h
458 18-01-2011 19:31:03 5.9 C 6.27 g/m*3 5.9 C 0 km/h
459 18-01-2011 19:43:03 5.8 C 6.23 g/m*3 5.8 C 0 km/h
460 18-01-2011 19:55:02 5.8 C 6.23 g/m*3 5.8 C 0 km/h
461 18-01-2011 20:07:02 5.8 C 6.23 g/m*3 5.8 C 0 km/h
462 18-01-2011 20:19:02 5.9 C 6.13 g/m*3 5.9 C 0 km/h
463 18-01-2011 20:31:02 5.8 C 6.02 g/m*3 5.8 C 0 km/h
464 18-01-2011 20:43:02 5.7 C 5.98 g/m*3 5.7 C 0 km/h
465 18-01-2011 20:55:02 5.5 C 5.83 g/m*3 5.5 C 0 km/h
466 18-01-2011 21:07:02 5.3 C 5.75 g/m*3 5.3 C 0 km/h
467 18-01-2011 21:19:02 5.2 C 5.65 g/m*3 5.2 C 0 km/h
468 18-01-2011 21:31:01 5.1 C 5.61 g/m*3 5.1 C 0 km/h
469 18-01-2011 21:43:01 5 C 5.57 g/m*3 5 C 0 km/h
470 18-01-2011 21:55:02 4.9 C 5.54 g/m*3 4.9 C 0 km/h
471 18-01-2011 22:08:03 4.8 C 5.57 g/m*3 4.8 C 0 km/h
472 18-01-2011 22:20:03 4.7 C 5.46 g/m*3 4.7 C 0 km/h
473 18-01-2011 22:32:03 4.6 C 5.43 g/m*3 4.6 C 0 km/h
474 18-01-2011 22:44:03 4.6 C 5.49 g/m*3 4.6 C 0 km/h
475 18-01-2011 22:56:03 4.5 C 5.46 g/m*3 4.5 C 0 km/h
Sensor: Nr:Datum:Temp:Abs-Feuchte:Windchill:Wind:
Aussen-T/F 476 18-01-2011 23:08:04 4.6 C 5.49 g/m*3 4.6 C 0 km/h
477 18-01-2011 23:20:04 4.6 C 5.43 g/m*3 4.6 C 0 km/h
478 18-01-2011 23:32:04 4.6 C 5.43 g/m*3 4.6 C 0 km/h
479 18-01-2011 23:44:04 4.8 C 5.5 g/m*3 4.8 C 0 km/h
480 18-01-2011 23:56:04 4.8 C 5.5 g/m*3 4.8 C 0 km/h
481 19-01-2011 00:08:04 4.7 C 5.46 g/m*3 4.7 C 0 km/h
482 19-01-2011 00:20:04 4.6 C 5.36 g/m*3 4.6 C 0 km/h
483 19-01-2011 00:32:04 4.3 C 5.06 g/m*3 4.3 C 0 km/h
484 19-01-2011 00:44:04 4.1 C 5.06 g/m*3 4.1 C 0 km/h
485 19-01-2011 00:56:04 4.1 C 5.06 g/m*3 4.1 C 0 km/h
486 19-01-2011 01:08:04 4 C 4.9 g/m*3 4 C 0 km/h
487 19-01-2011 01:20:04 4 C 4.83 g/m*3 4 C 0 km/h
488 19-01-2011 01:32:04 3.8 C 4.71 g/m*3 3.8 C 0 km/h
489 19-01-2011 01:44:04 3.8 C 4.71 g/m*3 3.8 C 0 km/h
490 19-01-2011 01:56:04 3.8 C 4.71 g/m*3 3.8 C 0 km/h
491 19-01-2011 02:08:04 3.8 C 4.64 g/m*3 3.8 C 0 km/h
492 19-01-2011 02:20:04 3.7 C 4.67 g/m*3 3.7 C 0 km/h
493 19-01-2011 02:32:04 3.1 C 4.61 g/m*3 3.1 C 0 km/h
494 19-01-2011 02:44:04 3.2 C 4.7 g/m*3 3.2 C 0 km/h
495 19-01-2011 02:56:04 3.3 C 4.73 g/m*3 3.3 C 0 km/h
496 19-01-2011 03:08:04 3.3 C 4.73 g/m*3 3.3 C 0 km/h
497 19-01-2011 03:20:05 2.9 C 4.78 g/m*3 2.9 C 0 km/h
498 19-01-2011 03:32:05 2.7 C 4.78 g/m*3 2.7 C 0 km/h
499 19-01-2011 03:44:05 2.7 C 4.84 g/m*3 2.7 C 0 km/h
500 19-01-2011 03:56:05 3 C 4.88 g/m*3 3 C 0 km/h
Sensor: Nr:Datum:Temp:Abs-Feuchte:Windchill:Wind:
Aussen-T/F 501 19-01-2011 04:08:05 3 C 4.88 g/m*3 3 C 0 km/h
502 19-01-2011 04:20:05 3 C 4.88 g/m*3 3 C 0 km/h
503 19-01-2011 04:32:05 2.8 C 4.93 g/m*3 2.8 C 0 km/h
504 19-01-2011 04:44:05 2.7 C 4.89 g/m*3 2.7 C 0 km/h
505 19-01-2011 04:56:05 2.5 C 4.89 g/m*3 2.5 C 0 km/h
506 19-01-2011 05:08:05 2.5 C 4.94 g/m*3 2.5 C 0 km/h
507 19-01-2011 05:20:05 2.5 C 4.94 g/m*3 2.5 C 0 km/h
508 19-01-2011 05:32:05 2.5 C 4.94 g/m*3 2.5 C 0 km/h
509 19-01-2011 05:44:05 2.6 C 5.03 g/m*3 2.6 C 0 km/h
510 19-01-2011 05:56:05 2.7 C 5.07 g/m*3 2.7 C 0 km/h
511 19-01-2011 06:08:05 2.6 C 4.98 g/m*3 2.6 C 0 km/h
512 19-01-2011 06:20:05 2.6 C 5.03 g/m*3 2.6 C 0 km/h
513 19-01-2011 06:32:05 2.6 C 4.98 g/m*3 2.6 C 0 km/h
514 19-01-2011 06:44:05 2.6 C 4.98 g/m*3 2.6 C 0 km/h
515 19-01-2011 06:56:05 2.8 C 4.99 g/m*3 2.8 C 0 km/h
516 19-01-2011 07:08:05 2.8 C 4.87 g/m*3 2.8 C 0 km/h
517 19-01-2011 07:20:06 2.9 C 4.84 g/m*3 2.9 C 0 km/h
518 19-01-2011 07:32:06 2.8 C 4.81 g/m*3 2.8 C 0 km/h
519 19-01-2011 07:44:06 2.9 C 4.9 g/m*3 2.9 C 0 km/h
520 19-01-2011 07:56:02 2.6 C 4.8 g/m*3 2.6 C 0 km/h
521 19-01-2011 08:08:02 2.4 C 4.8 g/m*3 2.4 C 0 km/h
522 19-01-2011 08:20:02 2.3 C 4.82 g/m*3 2.3 C 0 km/h
523 19-01-2011 08:32:02 2.3 C 4.88 g/m*3 2.3 C 0 km/h
524 19-01-2011 08:44:02 2.3 C 4.88 g/m*3 2.3 C 0 km/h
525 19-01-2011 08:56:02 2.7 C 4.95 g/m*3 2.7 C 0 km/h
Sensor: Nr:Datum:Temp:Abs-Feuchte:Windchill:Wind:
Aussen-T/F 526 19-01-2011 09:08:02 2.4 C 4.74 g/m*3 2.4 C 0 km/h
527 19-01-2011 09:20:03 2.5 C 4.77 g/m*3 2.5 C 0 km/h
528 19-01-2011 09:32:02 2.7 C 4.84 g/m*3 2.7 C 0 km/h
529 19-01-2011 09:44:02 2.9 C 4.9 g/m*3 2.9 C 0 km/h
530 19-01-2011 09:56:02 3 C 4.82 g/m*3 3 C 0 km/h
531 19-01-2011 10:08:02 3.1 C 4.85 g/m*3 3.1 C 0 km/h
532 19-01-2011 10:20:02 2.1 C 4.53 g/m*3 2.1 C 0 km/h
533 19-01-2011 10:32:03 2 C 4.56 g/m*3 2 C 0 km/h
534 19-01-2011 10:44:03 2.1 C 4.59 g/m*3 2.1 C 0 km/h
535 19-01-2011 10:56:02 2.7 C 4.89 g/m*3 2.7 C 0 km/h
536 19-01-2011 11:08:01 3.1 C 4.85 g/m*3 3.1 C 0 km/h
537 19-01-2011 11:20:02 3.5 C 4.86 g/m*3 3.5 C 0 km/h
538 19-01-2011 11:32:02 4 C 4.96 g/m*3 4 C 0 km/h
539 19-01-2011 11:44:02 3.9 C 4.8 g/m*3 3.9 C 0 km/h
540 19-01-2011 11:56:02 3.7 C 4.74 g/m*3 3.7 C 0 km/h
541 19-01-2011 12:08:03 4.1 C 4.67 g/m*3 4.1 C 0 km/h
542 19-01-2011 12:20:02 4.3 C 4.67 g/m*3 4.3 C 0 km/h
543 19-01-2011 12:32:02 4.4 C 4.7 g/m*3 4.4 C 0 km/h
544 19-01-2011 12:44:03 4.6 C 4.57 g/m*3 4.6 C 0 km/h
545 19-01-2011 12:56:01 4.8 C 4.56 g/m*3 4.8 C 0 km/h
546 19-01-2011 13:08:02 4.8 C 4.43 g/m*3 4.8 C 0 km/h
547 19-01-2011 13:20:01 4.7 C 4.4 g/m*3 4.7 C 0 km/h
548 19-01-2011 13:32:01 5 C 4.28 g/m*3 5 C 0 km/h
549 19-01-2011 13:44:01 5.2 C 4.34 g/m*3 5.2 C 0 km/h
550 19-01-2011 13:56:01 5 C 4.28 g/m*3 5 C 0 km/h
Sensor: Nr:Datum:Temp:Abs-Feuchte:Windchill:Wind:
Aussen-T/F 551 19-01-2011 14:08:02 5.3 C 4.3 g/m*3 5.3 C 0 km/h
552 19-01-2011 14:20:02 5.2 C 4.27 g/m*3 5.2 C 0 km/h
553 19-01-2011 14:32:01 5.4 C 4.19 g/m*3 5.4 C 0 km/h
554 19-01-2011 14:44:01 5.5 C 4.21 g/m*3 5.5 C 0 km/h
555 19-01-2011 14:56:01 5.4 C 4.26 g/m*3 5.4 C 0 km/h
556 19-01-2011 15:08:01 5.1 C 4.17 g/m*3 5.1 C 0 km/h
557 19-01-2011 15:20:02 4.9 C 4.12 g/m*3 4.9 C 0 km/h
558 19-01-2011 15:32:01 4.9 C 4.12 g/m*3 4.9 C 0 km/h
559 19-01-2011 15:44:01 4.9 C 4.12 g/m*3 4.9 C 0 km/h
560 19-01-2011 15:56:02 4.9 C 4.12 g/m*3 4.9 C 0 km/h
561 19-01-2011 16:08:01 4.9 C 4.12 g/m*3 4.9 C 0 km/h
562 19-01-2011 16:20:01 4.9 C 4.12 g/m*3 4.9 C 0 km/h
563 19-01-2011 16:32:02 3.8 C 4.52 g/m*3 3.8 C 0 km/h
564 19-01-2011 16:44:02 3.8 C 4.52 g/m*3 3.8 C 0 km/h
565 19-01-2011 16:56:02 3.5 C 4.55 g/m*3 3.5 C 0 km/h
566 19-01-2011 17:08:02 3.7 C 4.55 g/m*3 3.7 C 0 km/h
567 19-01-2011 17:20:02 3.5 C 4.49 g/m*3 3.5 C 0 km/h
568 19-01-2011 17:32:02 3.5 C 4.49 g/m*3 3.5 C 0 km/h
569 19-01-2011 17:44:02 3.1 C 4.49 g/m*3 3.1 C 0 km/h
570 19-01-2011 17:56:01 2.9 C 4.67 g/m*3 2.9 C 0 km/h
571 19-01-2011 18:08:02 2.8 C 4.69 g/m*3 2.8 C 0 km/h
572 19-01-2011 18:20:01 2.9 C 4.78 g/m*3 2.9 C 0 km/h
573 19-01-2011 18:32:02 2.6 C 4.69 g/m*3 2.6 C 0 km/h
574 19-01-2011 18:44:03 3.2 C 4.82 g/m*3 3.2 C 0 km/h
575 19-01-2011 18:56:02 3.2 C 4.52 g/m*3 3.2 C 0 km/h
Sensor: Nr:Datum:Temp:Abs-Feuchte:Windchill:Wind:
Aussen-T/F 576 19-01-2011 19:08:02 3.4 C 4.46 g/m*3 3.4 C 0 km/h
577 19-01-2011 19:20:01 3.5 C 4.43 g/m*3 3.5 C 0 km/h
578 19-01-2011 19:32:02 3.5 C 4.37 g/m*3 3.5 C 0 km/h
579 19-01-2011 19:44:02 3 C 4.46 g/m*3 3 C 0 km/h
580 19-01-2011 19:56:01 2.6 C 4.57 g/m*3 2.6 C 0 km/h
581 19-01-2011 20:08:02 2.3 C 4.59 g/m*3 2.3 C 0 km/h
582 19-01-2011 20:20:02 2.2 C 4.62 g/m*3 2.2 C 0 km/h
583 19-01-2011 20:32:02 2.4 C 4.74 g/m*3 2.4 C 0 km/h
584 19-01-2011 20:44:02 2.4 C 4.74 g/m*3 2.4 C 0 km/h
585 19-01-2011 20:56:02 2.5 C 4.77 g/m*3 2.5 C 0 km/h
586 19-01-2011 21:08:02 2.6 C 4.86 g/m*3 2.6 C 0 km/h
587 19-01-2011 21:20:02 2.5 C 4.77 g/m*3 2.5 C 0 km/h
588 19-01-2011 21:32:02 2.4 C 4.74 g/m*3 2.4 C 0 km/h
589 19-01-2011 21:44:02 2.5 C 4.77 g/m*3 2.5 C 0 km/h
590 19-01-2011 21:56:02 2.5 C 4.77 g/m*3 2.5 C 0 km/h
591 19-01-2011 22:08:02 2.4 C 4.74 g/m*3 2.4 C 0 km/h
592 19-01-2011 22:21:03 2.4 C 4.74 g/m*3 2.4 C 0 km/h
593 19-01-2011 22:33:03 2.4 C 4.74 g/m*3 2.4 C 0 km/h
594 19-01-2011 22:45:03 2.4 C 4.74 g/m*3 2.4 C 0 km/h
595 19-01-2011 22:57:03 2.4 C 4.68 g/m*3 2.4 C 0 km/h
596 19-01-2011 23:09:03 2.4 C 4.68 g/m*3 2.4 C 0 km/h
597 19-01-2011 23:21:03 2.4 C 4.74 g/m*3 2.4 C 0 km/h
598 19-01-2011 23:33:03 2.4 C 4.74 g/m*3 2.4 C 0 km/h
599 19-01-2011 23:45:03 2.1 C 4.64 g/m*3 2.1 C 0 km/h
600 19-01-2011 23:57:03 2.1 C 4.64 g/m*3 2.1 C 0 km/h

Legende:
   Min
   Max


Maximal/Minimal-Werte vom 15.01.2011 - 19.01.2011

Sensor Min Max Avg
Temp
(Aussen-T/F)
-1.1 °C
17-01-2011  08:30:02
10.3 °C
15-01-2011  12:28:03
5.95 °C
Abs-Feuchte
(Aussen-T/F)
4.12 g/m*3
19-01-2011  15:20:02
6.81 g/m*3
17-01-2011  13:06:02
5.57 g/m*3
Windchill
(Aussen-T/F)
-1.1 C
17-01-2011  08:30:02
10.3 C
15-01-2011  12:28:03
5.94 C

Die Daten stammen von einer Davis Vantage Pro 2 Wetter-Station und werden unter Linux mit der Software wview2wettercgi und aufbereitet. Alle Angaben erfolgen ohne Gewähr für ihre Vollständigkeit oder Richtigkeit.
Kontakt: Rainer Krienke krienke@uni-koblenz.de . Meine Webseiten an der Uni Koblenz oder privat.
Version: $Revision: 0.78 $